sensor_id;sensor_type;location;lat;lon;timestamp;temperature;humidity
35635;DHT22;21757;43.610;1.440;2023-04-03T00:01:15;10.10;1.00
35635;DHT22;21757;43.610;1.440;2023-04-03T00:03:41;10.10;1.00
35635;DHT22;21757;43.610;1.440;2023-04-03T00:06:07;10.10;1.00
35635;DHT22;21757;43.610;1.440;2023-04-03T00:08:34;10.10;1.00
35635;DHT22;21757;43.610;1.440;2023-04-03T00:11:00;10.10;1.00
35635;DHT22;21757;43.610;1.440;2023-04-03T00:13:26;10.10;1.00
35635;DHT22;21757;43.610;1.440;2023-04-03T00:15:52;10.10;1.00
35635;DHT22;21757;43.610;1.440;2023-04-03T00:18:18;10.20;1.00
35635;DHT22;21757;43.610;1.440;2023-04-03T00:20:44;10.20;1.00
35635;DHT22;21757;43.610;1.440;2023-04-03T00:23:09;10.20;1.00
35635;DHT22;21757;43.610;1.440;2023-04-03T00:25:36;10.10;1.00
35635;DHT22;21757;43.610;1.440;2023-04-03T00:28:02;10.10;1.00
35635;DHT22;21757;43.610;1.440;2023-04-03T00:30:28;10.10;1.00
35635;DHT22;21757;43.610;1.440;2023-04-03T00:32:54;10.10;1.00
35635;DHT22;21757;43.610;1.440;2023-04-03T00:35:23;10.10;1.00
35635;DHT22;21757;43.610;1.440;2023-04-03T00:37:51;10.10;1.00
35635;DHT22;21757;43.610;1.440;2023-04-03T00:40:17;10.10;1.00
35635;DHT22;21757;43.610;1.440;2023-04-03T00:42:44;10.10;1.00
35635;DHT22;21757;43.610;1.440;2023-04-03T00:47:36;10.00;1.00
35635;DHT22;21757;43.610;1.440;2023-04-03T00:50:04;10.00;1.00
35635;DHT22;21757;43.610;1.440;2023-04-03T00:52:30;10.00;1.00
35635;DHT22;21757;43.610;1.440;2023-04-03T00:55:03;10.00;1.00
35635;DHT22;21757;43.610;1.440;2023-04-03T00:57:31;10.00;1.00
35635;DHT22;21757;43.610;1.440;2023-04-03T01:00:01;10.00;1.00
35635;DHT22;21757;43.610;1.440;2023-04-03T01:02:28;10.00;1.00
35635;DHT22;21757;43.610;1.440;2023-04-03T01:04:54;10.00;1.00
35635;DHT22;21757;43.610;1.440;2023-04-03T01:07:23;10.00;1.00
35635;DHT22;21757;43.610;1.440;2023-04-03T01:09:53;9.90;1.00
35635;DHT22;21757;43.610;1.440;2023-04-03T01:12:26;9.90;1.00
35635;DHT22;21757;43.610;1.440;2023-04-03T01:14:56;9.90;1.00
35635;DHT22;21757;43.610;1.440;2023-04-03T01:22:44;10.00;1.00
35635;DHT22;21757;43.610;1.440;2023-04-03T01:25:14;10.00;1.00
35635;DHT22;21757;43.610;1.440;2023-04-03T01:27:40;10.00;1.00
35635;DHT22;21757;43.610;1.440;2023-04-03T01:30:06;10.00;1.00
35635;DHT22;21757;43.610;1.440;2023-04-03T01:32:32;10.00;1.00
35635;DHT22;21757;43.610;1.440;2023-04-03T01:34:59;10.00;1.00
35635;DHT22;21757;43.610;1.440;2023-04-03T01:37:24;10.00;1.00
35635;DHT22;21757;43.610;1.440;2023-04-03T01:39:50;10.00;1.00
35635;DHT22;21757;43.610;1.440;2023-04-03T01:42:16;10.00;1.00
35635;DHT22;21757;43.610;1.440;2023-04-03T01:44:41;9.90;1.00
35635;DHT22;21757;43.610;1.440;2023-04-03T01:47:07;9.90;1.00
35635;DHT22;21757;43.610;1.440;2023-04-03T01:49:33;9.90;1.00
35635;DHT22;21757;43.610;1.440;2023-04-03T01:51:58;9.90;1.00
35635;DHT22;21757;43.610;1.440;2023-04-03T01:54:24;9.90;1.00
35635;DHT22;21757;43.610;1.440;2023-04-03T01:56:50;9.90;1.00
35635;DHT22;21757;43.610;1.440;2023-04-03T01:59:16;9.90;1.00
35635;DHT22;21757;43.610;1.440;2023-04-03T02:01:43;9.90;1.00
35635;DHT22;21757;43.610;1.440;2023-04-03T02:04:11;9.90;1.00
35635;DHT22;21757;43.610;1.440;2023-04-03T02:06:37;9.80;1.00
35635;DHT22;21757;43.610;1.440;2023-04-03T02:09:03;9.80;1.00
35635;DHT22;21757;43.610;1.440;2023-04-03T02:11:29;9.80;1.00
35635;DHT22;21757;43.610;1.440;2023-04-03T02:13:55;9.80;1.00
35635;DHT22;21757;43.610;1.440;2023-04-03T02:16:21;9.80;1.00
35635;DHT22;21757;43.610;1.440;2023-04-03T02:18:46;9.80;1.00
35635;DHT22;21757;43.610;1.440;2023-04-03T02:21:12;9.80;1.00
35635;DHT22;21757;43.610;1.440;2023-04-03T02:23:38;9.80;1.00
35635;DHT22;21757;43.610;1.440;2023-04-03T02:26:09;9.70;1.00
35635;DHT22;21757;43.610;1.440;2023-04-03T02:28:35;9.70;1.00
35635;DHT22;21757;43.610;1.440;2023-04-03T02:31:01;9.80;1.00
35635;DHT22;21757;43.610;1.440;2023-04-03T02:33:27;9.70;1.00
35635;DHT22;21757;43.610;1.440;2023-04-03T02:35:56;9.70;1.00
35635;DHT22;21757;43.610;1.440;2023-04-03T02:38:23;9.70;1.00
35635;DHT22;21757;43.610;1.440;2023-04-03T02:40:49;9.60;1.00
35635;DHT22;21757;43.610;1.440;2023-04-03T02:43:16;9.50;1.00
35635;DHT22;21757;43.610;1.440;2023-04-03T02:45:42;9.50;1.00
35635;DHT22;21757;43.610;1.440;2023-04-03T02:48:07;9.50;1.00
35635;DHT22;21757;43.610;1.440;2023-04-03T02:50:33;9.50;1.00
35635;DHT22;21757;43.610;1.440;2023-04-03T02:52:59;9.50;1.00
35635;DHT22;21757;43.610;1.440;2023-04-03T02:55:25;9.50;1.00
35635;DHT22;21757;43.610;1.440;2023-04-03T02:57:50;9.40;1.00
35635;DHT22;21757;43.610;1.440;2023-04-03T03:00:16;9.50;1.00
35635;DHT22;21757;43.610;1.440;2023-04-03T03:02:42;9.60;1.00
35635;DHT22;21757;43.610;1.440;2023-04-03T03:05:08;9.60;1.00
35635;DHT22;21757;43.610;1.440;2023-04-03T03:07:33;9.60;1.00
35635;DHT22;21757;43.610;1.440;2023-04-03T03:09:59;9.60;1.00
35635;DHT22;21757;43.610;1.440;2023-04-03T03:12:25;9.60;1.00
35635;DHT22;21757;43.610;1.440;2023-04-03T03:14:51;9.60;1.00
35635;DHT22;21757;43.610;1.440;2023-04-03T03:17:17;9.60;1.00
35635;DHT22;21757;43.610;1.440;2023-04-03T03:19:43;9.60;1.00
35635;DHT22;21757;43.610;1.440;2023-04-03T03:22:08;9.50;1.00
35635;DHT22;21757;43.610;1.440;2023-04-03T03:24:34;9.50;1.00
35635;DHT22;21757;43.610;1.440;2023-04-03T03:27:00;9.60;1.00
35635;DHT22;21757;43.610;1.440;2023-04-03T03:29:25;9.60;1.00
35635;DHT22;21757;43.610;1.440;2023-04-03T03:31:51;9.50;1.00
35635;DHT22;21757;43.610;1.440;2023-04-03T03:34:17;9.60;1.00
35635;DHT22;21757;43.610;1.440;2023-04-03T03:36:43;9.60;1.00
35635;DHT22;21757;43.610;1.440;2023-04-03T03:39:09;9.60;1.00
35635;DHT22;21757;43.610;1.440;2023-04-03T03:41:34;9.60;1.00
35635;DHT22;21757;43.610;1.440;2023-04-03T03:44:00;9.60;1.00
35635;DHT22;21757;43.610;1.440;2023-04-03T03:46:26;9.60;1.00
35635;DHT22;21757;43.610;1.440;2023-04-03T03:48:52;9.60;1.00
35635;DHT22;21757;43.610;1.440;2023-04-03T03:51:17;9.60;1.00
35635;DHT22;21757;43.610;1.440;2023-04-03T03:53:43;9.50;1.00
35635;DHT22;21757;43.610;1.440;2023-04-03T03:56:09;9.40;1.00
35635;DHT22;21757;43.610;1.440;2023-04-03T03:58:35;9.40;1.00
35635;DHT22;21757;43.610;1.440;2023-04-03T04:01:02;9.50;1.00
35635;DHT22;21757;43.610;1.440;2023-04-03T04:03:28;9.50;1.00
35635;DHT22;21757;43.610;1.440;2023-04-03T04:05:54;9.50;1.00
35635;DHT22;21757;43.610;1.440;2023-04-03T04:08:20;9.50;1.00
35635;DHT22;21757;43.610;1.440;2023-04-03T04:10:45;9.50;1.00
35635;DHT22;21757;43.610;1.440;2023-04-03T04:13:11;9.40;1.00
35635;DHT22;21757;43.610;1.440;2023-04-03T04:15:37;9.50;1.00
35635;DHT22;21757;43.610;1.440;2023-04-03T04:18:02;9.40;1.00
35635;DHT22;21757;43.610;1.440;2023-04-03T04:20:28;9.40;1.00
35635;DHT22;21757;43.610;1.440;2023-04-03T04:22:54;9.30;1.00
35635;DHT22;21757;43.610;1.440;2023-04-03T04:25:20;9.30;1.00
35635;DHT22;21757;43.610;1.440;2023-04-03T04:27:46;9.30;1.00
35635;DHT22;21757;43.610;1.440;2023-04-03T04:30:12;9.30;1.00
35635;DHT22;21757;43.610;1.440;2023-04-03T04:32:38;9.30;1.00
35635;DHT22;21757;43.610;1.440;2023-04-03T04:35:04;9.40;1.00
35635;DHT22;21757;43.610;1.440;2023-04-03T04:37:30;9.40;1.00
35635;DHT22;21757;43.610;1.440;2023-04-03T04:39:56;9.40;1.00
35635;DHT22;21757;43.610;1.440;2023-04-03T04:42:21;9.30;1.00
35635;DHT22;21757;43.610;1.440;2023-04-03T04:44:47;9.40;1.00
35635;DHT22;21757;43.610;1.440;2023-04-03T04:47:13;9.40;1.00
35635;DHT22;21757;43.610;1.440;2023-04-03T04:49:38;9.40;1.00
35635;DHT22;21757;43.610;1.440;2023-04-03T04:52:04;9.40;1.00
35635;DHT22;21757;43.610;1.440;2023-04-03T04:54:30;9.40;1.00
35635;DHT22;21757;43.610;1.440;2023-04-03T04:56:56;9.40;1.00
35635;DHT22;21757;43.610;1.440;2023-04-03T04:59:21;9.40;1.00
35635;DHT22;21757;43.610;1.440;2023-04-03T05:01:47;9.40;1.00
35635;DHT22;21757;43.610;1.440;2023-04-03T05:04:13;9.40;1.00
35635;DHT22;21757;43.610;1.440;2023-04-03T05:06:39;9.40;1.00
35635;DHT22;21757;43.610;1.440;2023-04-03T05:09:04;9.40;1.00
35635;DHT22;21757;43.610;1.440;2023-04-03T05:11:30;9.40;1.00
35635;DHT22;21757;43.610;1.440;2023-04-03T05:13:56;9.50;1.00
35635;DHT22;21757;43.610;1.440;2023-04-03T05:16:21;9.40;1.00
35635;DHT22;21757;43.610;1.440;2023-04-03T05:18:47;9.40;1.00
35635;DHT22;21757;43.610;1.440;2023-04-03T05:21:13;9.40;1.00
35635;DHT22;21757;43.610;1.440;2023-04-03T05:23:38;9.40;1.00
35635;DHT22;21757;43.610;1.440;2023-04-03T05:26:04;9.40;1.00
35635;DHT22;21757;43.610;1.440;2023-04-03T05:28:30;9.40;1.00
35635;DHT22;21757;43.610;1.440;2023-04-03T05:30:58;9.40;1.00
35635;DHT22;21757;43.610;1.440;2023-04-03T05:33:24;9.40;1.00
35635;DHT22;21757;43.610;1.440;2023-04-03T05:35:52;9.40;1.00
35635;DHT22;21757;43.610;1.440;2023-04-03T05:38:17;9.50;1.00
35635;DHT22;21757;43.610;1.440;2023-04-03T05:40:43;9.50;1.00
35635;DHT22;21757;43.610;1.440;2023-04-03T05:43:09;9.50;1.00
35635;DHT22;21757;43.610;1.440;2023-04-03T05:45:35;9.50;1.00
35635;DHT22;21757;43.610;1.440;2023-04-03T05:48:01;9.50;1.00
35635;DHT22;21757;43.610;1.440;2023-04-03T05:50:27;9.50;1.00
35635;DHT22;21757;43.610;1.440;2023-04-03T05:52:56;9.50;1.00
35635;DHT22;21757;43.610;1.440;2023-04-03T05:55:22;9.50;1.00
35635;DHT22;21757;43.610;1.440;2023-04-03T05:57:48;9.50;1.00
35635;DHT22;21757;43.610;1.440;2023-04-03T06:00:14;9.50;1.00
35635;DHT22;21757;43.610;1.440;2023-04-03T06:02:43;9.50;1.00
35635;DHT22;21757;43.610;1.440;2023-04-03T06:05:09;9.50;1.00
35635;DHT22;21757;43.610;1.440;2023-04-03T06:07:36;9.60;1.00
35635;DHT22;21757;43.610;1.440;2023-04-03T06:10:03;9.60;1.00
35635;DHT22;21757;43.610;1.440;2023-04-03T06:12:29;9.50;1.00
35635;DHT22;21757;43.610;1.440;2023-04-03T06:14:55;9.50;1.00
35635;DHT22;21757;43.610;1.440;2023-04-03T06:17:21;9.60;1.00
35635;DHT22;21757;43.610;1.440;2023-04-03T06:19:47;9.60;1.00
35635;DHT22;21757;43.610;1.440;2023-04-03T06:22:13;9.60;1.00
35635;DHT22;21757;43.610;1.440;2023-04-03T06:24:39;9.70;1.00
35635;DHT22;21757;43.610;1.440;2023-04-03T06:27:05;9.70;1.00
35635;DHT22;21757;43.610;1.440;2023-04-03T06:29:31;9.70;1.00
35635;DHT22;21757;43.610;1.440;2023-04-03T06:31:57;9.80;1.00
35635;DHT22;21757;43.610;1.440;2023-04-03T06:34:23;9.70;1.00
35635;DHT22;21757;43.610;1.440;2023-04-03T06:36:49;9.70;1.00
35635;DHT22;21757;43.610;1.440;2023-04-03T06:39:18;9.80;1.00
35635;DHT22;21757;43.610;1.440;2023-04-03T06:41:46;9.80;1.00
35635;DHT22;21757;43.610;1.440;2023-04-03T06:44:12;9.70;1.00
35635;DHT22;21757;43.610;1.440;2023-04-03T06:46:41;9.80;1.00
35635;DHT22;21757;43.610;1.440;2023-04-03T06:49:07;9.90;1.00
35635;DHT22;21757;43.610;1.440;2023-04-03T06:51:33;9.90;1.00
35635;DHT22;21757;43.610;1.440;2023-04-03T06:53:59;9.90;1.00
35635;DHT22;21757;43.610;1.440;2023-04-03T06:56:26;10.00;1.00
35635;DHT22;21757;43.610;1.440;2023-04-03T06:58:53;10.00;1.00
35635;DHT22;21757;43.610;1.440;2023-04-03T07:01:20;10.00;1.00
35635;DHT22;21757;43.610;1.440;2023-04-03T07:03:47;10.10;1.00
35635;DHT22;21757;43.610;1.440;2023-04-03T07:06:17;10.10;1.00
35635;DHT22;21757;43.610;1.440;2023-04-03T07:08:44;10.10;1.00
35635;DHT22;21757;43.610;1.440;2023-04-03T07:11:11;10.00;1.00
35635;DHT22;21757;43.610;1.440;2023-04-03T07:13:37;10.10;1.00
35635;DHT22;21757;43.610;1.440;2023-04-03T07:16:04;10.00;1.00
35635;DHT22;21757;43.610;1.440;2023-04-03T07:18:31;9.90;1.00
35635;DHT22;21757;43.610;1.440;2023-04-03T07:20:57;10.00;1.00
35635;DHT22;21757;43.610;1.440;2023-04-03T07:23:23;10.10;1.00
35635;DHT22;21757;43.610;1.440;2023-04-03T07:25:50;10.20;1.00
35635;DHT22;21757;43.610;1.440;2023-04-03T07:28:17;10.30;1.00
35635;DHT22;21757;43.610;1.440;2023-04-03T07:31:05;10.20;1.00
35635;DHT22;21757;43.610;1.440;2023-04-03T07:33:34;10.30;1.00
35635;DHT22;21757;43.610;1.440;2023-04-03T07:36:01;10.30;1.00
35635;DHT22;21757;43.610;1.440;2023-04-03T07:38:27;10.40;1.00
35635;DHT22;21757;43.610;1.440;2023-04-03T07:40:53;10.50;1.00
35635;DHT22;21757;43.610;1.440;2023-04-03T07:43:20;10.70;1.00
35635;DHT22;21757;43.610;1.440;2023-04-03T07:45:50;10.90;1.00
35635;DHT22;21757;43.610;1.440;2023-04-03T07:48:18;11.00;1.00
35635;DHT22;21757;43.610;1.440;2023-04-03T07:50:44;11.10;1.00
35635;DHT22;21757;43.610;1.440;2023-04-03T07:58:17;11.10;1.00
35635;DHT22;21757;43.610;1.440;2023-04-03T08:00:46;11.10;1.00
35635;DHT22;21757;43.610;1.440;2023-04-03T08:03:13;11.00;1.00
35635;DHT22;21757;43.610;1.440;2023-04-03T08:05:40;11.00;1.00
35635;DHT22;21757;43.610;1.440;2023-04-03T08:08:07;11.00;1.00
35635;DHT22;21757;43.610;1.440;2023-04-03T08:10:33;11.10;1.00
35635;DHT22;21757;43.610;1.440;2023-04-03T08:13:00;11.20;1.00
35635;DHT22;21757;43.610;1.440;2023-04-03T08:15:26;11.30;1.00
35635;DHT22;21757;43.610;1.440;2023-04-03T08:17:52;11.20;99.90
35635;DHT22;21757;43.610;1.440;2023-04-03T08:20:18;11.30;99.90
35635;DHT22;21757;43.610;1.440;2023-04-03T08:22:44;11.30;99.90
35635;DHT22;21757;43.610;1.440;2023-04-03T08:25:10;11.60;99.90
35635;DHT22;21757;43.610;1.440;2023-04-03T08:27:35;11.70;99.90
35635;DHT22;21757;43.610;1.440;2023-04-03T08:30:01;11.80;99.90
35635;DHT22;21757;43.610;1.440;2023-04-03T08:32:27;12.10;99.90
35635;DHT22;21757;43.610;1.440;2023-04-03T08:34:53;12.10;99.90
35635;DHT22;21757;43.610;1.440;2023-04-03T08:37:19;12.10;99.90
35635;DHT22;21757;43.610;1.440;2023-04-03T08:39:45;11.90;99.90
35635;DHT22;21757;43.610;1.440;2023-04-03T08:42:32;11.80;99.90
35635;DHT22;21757;43.610;1.440;2023-04-03T08:47:41;11.70;99.90
35635;DHT22;21757;43.610;1.440;2023-04-03T08:50:19;12.50;99.90
35635;DHT22;21757;43.610;1.440;2023-04-03T08:52:56;12.90;99.90
35635;DHT22;21757;43.610;1.440;2023-04-03T08:55:27;12.50;99.90
35635;DHT22;21757;43.610;1.440;2023-04-03T08:58:13;12.30;99.90
35635;DHT22;21757;43.610;1.440;2023-04-03T09:00:46;12.00;99.90
35635;DHT22;21757;43.610;1.440;2023-04-03T09:03:14;12.00;99.90
35635;DHT22;21757;43.610;1.440;2023-04-03T09:05:57;12.10;99.90
35635;DHT22;21757;43.610;1.440;2023-04-03T09:08:45;12.10;99.90
35635;DHT22;21757;43.610;1.440;2023-04-03T09:14:41;11.60;99.90
35635;DHT22;21757;43.610;1.440;2023-04-03T09:22:54;12.50;99.90
35635;DHT22;21757;43.610;1.440;2023-04-03T09:25:22;13.00;99.90
35635;DHT22;21757;43.610;1.440;2023-04-03T09:27:50;13.00;99.90
35635;DHT22;21757;43.610;1.440;2023-04-03T09:30:23;12.70;99.90
35635;DHT22;21757;43.610;1.440;2023-04-03T09:32:52;12.50;99.90
35635;DHT22;21757;43.610;1.440;2023-04-03T09:35:31;12.60;99.90
35635;DHT22;21757;43.610;1.440;2023-04-03T09:43:00;12.80;99.90
35635;DHT22;21757;43.610;1.440;2023-04-03T09:45:30;13.00;99.90
35635;DHT22;21757;43.610;1.440;2023-04-03T09:48:21;13.10;99.90
35635;DHT22;21757;43.610;1.440;2023-04-03T09:53:41;13.40;99.90
35635;DHT22;21757;43.610;1.440;2023-04-03T09:58:45;13.40;99.90
35635;DHT22;21757;43.610;1.440;2023-04-03T10:01:34;13.60;99.90
35635;DHT22;21757;43.610;1.440;2023-04-03T10:04:16;13.70;99.90
35635;DHT22;21757;43.610;1.440;2023-04-03T10:06:48;13.70;99.90
35635;DHT22;21757;43.610;1.440;2023-04-03T10:12:28;13.50;99.90
35635;DHT22;21757;43.610;1.440;2023-04-03T10:14:57;13.50;99.90
35635;DHT22;21757;43.610;1.440;2023-04-03T10:23:18;13.20;99.90
35635;DHT22;21757;43.610;1.440;2023-04-03T10:29:02;13.20;99.90
35635;DHT22;21757;43.610;1.440;2023-04-03T10:32:06;13.30;99.90
35635;DHT22;21757;43.610;1.440;2023-04-03T10:34:44;13.50;99.90
35635;DHT22;21757;43.610;1.440;2023-04-03T10:37:41;13.40;99.90
35635;DHT22;21757;43.610;1.440;2023-04-03T10:40:25;13.50;99.90
35635;DHT22;21757;43.610;1.440;2023-04-03T10:43:09;13.70;99.90
35635;DHT22;21757;43.610;1.440;2023-04-03T10:45:46;13.50;99.90
35635;DHT22;21757;43.610;1.440;2023-04-03T10:53:49;13.80;99.90
35635;DHT22;21757;43.610;1.440;2023-04-03T11:02:18;13.00;99.90
35635;DHT22;21757;43.610;1.440;2023-04-03T11:05:07;13.70;99.90
35635;DHT22;21757;43.610;1.440;2023-04-03T11:07:40;14.60;99.90
35635;DHT22;21757;43.610;1.440;2023-04-03T11:13:06;15.10;99.90
35635;DHT22;21757;43.610;1.440;2023-04-03T11:15:33;15.00;99.90
35635;DHT22;21757;43.610;1.440;2023-04-03T11:18:21;15.30;99.90
35635;DHT22;21757;43.610;1.440;2023-04-03T11:21:08;14.30;99.90
35635;DHT22;21757;43.610;1.440;2023-04-03T11:23:39;13.90;99.90
35635;DHT22;21757;43.610;1.440;2023-04-03T11:26:19;13.90;99.90
35635;DHT22;21757;43.610;1.440;2023-04-03T11:28:46;13.90;99.90
35635;DHT22;21757;43.610;1.440;2023-04-03T11:36:55;14.30;99.90
35635;DHT22;21757;43.610;1.440;2023-04-03T11:39:33;14.50;99.90
35635;DHT22;21757;43.610;1.440;2023-04-03T11:42:19;14.80;99.90
35635;DHT22;21757;43.610;1.440;2023-04-03T11:44:48;15.00;99.90
35635;DHT22;21757;43.610;1.440;2023-04-03T11:53:42;14.80;99.90
35635;DHT22;21757;43.610;1.440;2023-04-03T11:58:19;15.20;99.90
35635;DHT22;21757;43.610;1.440;2023-04-03T12:01:02;15.30;99.90
35635;DHT22;21757;43.610;1.440;2023-04-03T12:24:02;15.50;99.90
35635;DHT22;21757;43.610;1.440;2023-04-03T12:32:05;15.60;99.90
35635;DHT22;21757;43.610;1.440;2023-04-03T12:48:26;15.40;99.90
35635;DHT22;21757;43.610;1.440;2023-04-03T12:50:52;15.30;99.90
35635;DHT22;21757;43.610;1.440;2023-04-03T13:01:38;15.20;99.90
35635;DHT22;21757;43.610;1.440;2023-04-03T13:04:05;15.30;99.90
35635;DHT22;21757;43.610;1.440;2023-04-03T13:06:36;15.20;99.90
35635;DHT22;21757;43.610;1.440;2023-04-03T13:09:03;15.20;99.90
35635;DHT22;21757;43.610;1.440;2023-04-03T13:11:40;15.50;99.90
35635;DHT22;21757;43.610;1.440;2023-04-03T13:14:19;15.00;99.90
35635;DHT22;21757;43.610;1.440;2023-04-03T13:17:15;15.00;99.90
35635;DHT22;21757;43.610;1.440;2023-04-03T13:22:32;15.40;99.90
35635;DHT22;21757;43.610;1.440;2023-04-03T13:25:22;15.10;99.90
35635;DHT22;21757;43.610;1.440;2023-04-03T13:33:37;15.50;99.90
35635;DHT22;21757;43.610;1.440;2023-04-03T13:36:30;15.40;99.90
35635;DHT22;21757;43.610;1.440;2023-04-03T13:39:32;15.40;99.90
35635;DHT22;21757;43.610;1.440;2023-04-03T13:52:30;16.20;99.90
35635;DHT22;21757;43.610;1.440;2023-04-03T13:54:59;16.00;99.90
35635;DHT22;21757;43.610;1.440;2023-04-03T13:57:25;15.80;99.90
35635;DHT22;21757;43.610;1.440;2023-04-03T13:59:52;15.60;99.90
35635;DHT22;21757;43.610;1.440;2023-04-03T14:02:29;15.60;99.90
35635;DHT22;21757;43.610;1.440;2023-04-03T14:05:04;15.60;99.90
35635;DHT22;21757;43.610;1.440;2023-04-03T14:07:33;15.40;99.90
35635;DHT22;21757;43.610;1.440;2023-04-03T14:09:59;15.20;99.90
35635;DHT22;21757;43.610;1.440;2023-04-03T14:12:34;15.10;99.90
35635;DHT22;21757;43.610;1.440;2023-04-03T14:15:03;15.00;99.90
35635;DHT22;21757;43.610;1.440;2023-04-03T14:22:45;14.90;99.90
35635;DHT22;21757;43.610;1.440;2023-04-03T14:25:12;14.70;99.90
35635;DHT22;21757;43.610;1.440;2023-04-03T14:27:43;14.80;99.90
35635;DHT22;21757;43.610;1.440;2023-04-03T14:30:12;14.90;99.90
35635;DHT22;21757;43.610;1.440;2023-04-03T14:32:42;15.00;99.90
35635;DHT22;21757;43.610;1.440;2023-04-03T14:35:07;14.90;99.90
35635;DHT22;21757;43.610;1.440;2023-04-03T14:37:33;14.80;99.90
35635;DHT22;21757;43.610;1.440;2023-04-03T14:40:00;14.70;99.90
35635;DHT22;21757;43.610;1.440;2023-04-03T14:42:30;14.80;99.90
35635;DHT22;21757;43.610;1.440;2023-04-03T14:44:58;14.90;99.90
35635;DHT22;21757;43.610;1.440;2023-04-03T14:47:27;15.00;99.90
35635;DHT22;21757;43.610;1.440;2023-04-03T14:49:53;14.80;99.90
35635;DHT22;21757;43.610;1.440;2023-04-03T14:52:21;15.10;99.90
35635;DHT22;21757;43.610;1.440;2023-04-03T14:54:48;15.10;99.90
35635;DHT22;21757;43.610;1.440;2023-04-03T14:57:15;15.40;99.90
35635;DHT22;21757;43.610;1.440;2023-04-03T14:59:41;15.50;99.90
35635;DHT22;21757;43.610;1.440;2023-04-03T15:05:00;15.80;99.90
35635;DHT22;21757;43.610;1.440;2023-04-03T15:07:30;15.90;99.90
35635;DHT22;21757;43.610;1.440;2023-04-03T15:10:20;15.90;99.90
35635;DHT22;21757;43.610;1.440;2023-04-03T15:12:48;15.50;99.90
35635;DHT22;21757;43.610;1.440;2023-04-03T15:15:14;15.60;99.90
35635;DHT22;21757;43.610;1.440;2023-04-03T15:17:41;15.10;99.90
35635;DHT22;21757;43.610;1.440;2023-04-03T15:20:20;15.20;99.90
35635;DHT22;21757;43.610;1.440;2023-04-03T15:22:46;15.10;99.90
35635;DHT22;21757;43.610;1.440;2023-04-03T15:25:12;15.10;99.90
35635;DHT22;21757;43.610;1.440;2023-04-03T15:27:38;15.00;99.90
35635;DHT22;21757;43.610;1.440;2023-04-03T15:30:10;15.00;99.90
35635;DHT22;21757;43.610;1.440;2023-04-03T15:32:36;14.90;99.90
35635;DHT22;21757;43.610;1.440;2023-04-03T15:35:02;15.10;99.90
35635;DHT22;21757;43.610;1.440;2023-04-03T15:37:28;14.90;99.90
35635;DHT22;21757;43.610;1.440;2023-04-03T15:39:54;15.00;99.90
35635;DHT22;21757;43.610;1.440;2023-04-03T15:42:20;15.30;99.90
35635;DHT22;21757;43.610;1.440;2023-04-03T15:44:45;15.50;99.90
35635;DHT22;21757;43.610;1.440;2023-04-03T15:47:11;15.50;99.90
35635;DHT22;21757;43.610;1.440;2023-04-03T15:49:37;15.50;99.90
35635;DHT22;21757;43.610;1.440;2023-04-03T15:52:03;15.70;99.90
35635;DHT22;21757;43.610;1.440;2023-04-03T15:54:29;15.60;99.90
35635;DHT22;21757;43.610;1.440;2023-04-03T15:56:55;15.50;99.90
35635;DHT22;21757;43.610;1.440;2023-04-03T15:59:21;15.20;99.90
35635;DHT22;21757;43.610;1.440;2023-04-03T16:01:48;15.20;99.90
35635;DHT22;21757;43.610;1.440;2023-04-03T16:04:14;15.30;99.90
35635;DHT22;21757;43.610;1.440;2023-04-03T16:06:40;15.10;99.90
35635;DHT22;21757;43.610;1.440;2023-04-03T16:09:07;15.10;99.90
35635;DHT22;21757;43.610;1.440;2023-04-03T16:11:33;15.00;99.90
35635;DHT22;21757;43.610;1.440;2023-04-03T16:14:01;14.90;99.90
35635;DHT22;21757;43.610;1.440;2023-04-03T16:16:27;14.90;99.90
35635;DHT22;21757;43.610;1.440;2023-04-03T16:18:54;15.00;99.90
35635;DHT22;21757;43.610;1.440;2023-04-03T16:21:21;14.90;99.90
35635;DHT22;21757;43.610;1.440;2023-04-03T16:23:47;14.80;99.90
35635;DHT22;21757;43.610;1.440;2023-04-03T16:26:13;14.70;99.90
35635;DHT22;21757;43.610;1.440;2023-04-03T16:28:39;14.70;99.90
35635;DHT22;21757;43.610;1.440;2023-04-03T16:31:06;14.50;99.90
35635;DHT22;21757;43.610;1.440;2023-04-03T16:33:33;14.30;99.90
35635;DHT22;21757;43.610;1.440;2023-04-03T16:35:59;14.10;99.90
35635;DHT22;21757;43.610;1.440;2023-04-03T16:38:25;14.20;99.90
35635;DHT22;21757;43.610;1.440;2023-04-03T16:40:51;14.50;99.90
35635;DHT22;21757;43.610;1.440;2023-04-03T16:43:17;14.90;99.90
35635;DHT22;21757;43.610;1.440;2023-04-03T16:45:43;15.10;99.90
35635;DHT22;21757;43.610;1.440;2023-04-03T16:48:09;14.80;99.90
35635;DHT22;21757;43.610;1.440;2023-04-03T16:50:34;14.90;99.90
35635;DHT22;21757;43.610;1.440;2023-04-03T16:53:00;15.00;99.90
35635;DHT22;21757;43.610;1.440;2023-04-03T16:55:28;14.90;99.90
35635;DHT22;21757;43.610;1.440;2023-04-03T16:57:54;14.70;99.90
35635;DHT22;21757;43.610;1.440;2023-04-03T17:00:20;14.50;99.90
35635;DHT22;21757;43.610;1.440;2023-04-03T17:02:46;14.20;99.90
35635;DHT22;21757;43.610;1.440;2023-04-03T17:05:12;14.20;99.90
35635;DHT22;21757;43.610;1.440;2023-04-03T17:07:38;14.20;99.90
35635;DHT22;21757;43.610;1.440;2023-04-03T17:10:04;14.20;99.90
35635;DHT22;21757;43.610;1.440;2023-04-03T17:12:30;14.20;99.90
35635;DHT22;21757;43.610;1.440;2023-04-03T17:14:55;14.10;99.90
35635;DHT22;21757;43.610;1.440;2023-04-03T17:17:23;14.00;99.90
35635;DHT22;21757;43.610;1.440;2023-04-03T17:19:49;13.90;99.90
35635;DHT22;21757;43.610;1.440;2023-04-03T17:22:15;13.80;99.90
35635;DHT22;21757;43.610;1.440;2023-04-03T17:24:42;13.70;99.90
35635;DHT22;21757;43.610;1.440;2023-04-03T17:27:09;13.70;99.90
35635;DHT22;21757;43.610;1.440;2023-04-03T17:29:34;13.70;99.90
35635;DHT22;21757;43.610;1.440;2023-04-03T17:32:00;13.60;99.90
35635;DHT22;21757;43.610;1.440;2023-04-03T17:34:26;13.50;99.90
35635;DHT22;21757;43.610;1.440;2023-04-03T17:36:52;13.50;99.90
35635;DHT22;21757;43.610;1.440;2023-04-03T17:39:18;13.40;99.90
35635;DHT22;21757;43.610;1.440;2023-04-03T17:41:44;13.30;99.90
35635;DHT22;21757;43.610;1.440;2023-04-03T17:44:14;13.20;99.90
35635;DHT22;21757;43.610;1.440;2023-04-03T17:46:40;13.10;99.90
35635;DHT22;21757;43.610;1.440;2023-04-03T17:49:05;13.00;99.90
35635;DHT22;21757;43.610;1.440;2023-04-03T17:51:31;12.90;99.90
35635;DHT22;21757;43.610;1.440;2023-04-03T17:53:59;12.90;99.90
35635;DHT22;21757;43.610;1.440;2023-04-03T17:56:25;12.80;99.90
35635;DHT22;21757;43.610;1.440;2023-04-03T17:58:55;12.80;99.90
35635;DHT22;21757;43.610;1.440;2023-04-03T18:01:27;12.70;99.90
35635;DHT22;21757;43.610;1.440;2023-04-03T18:03:55;12.60;99.90
35635;DHT22;21757;43.610;1.440;2023-04-03T18:06:23;12.50;99.90
35635;DHT22;21757;43.610;1.440;2023-04-03T18:08:53;12.50;99.90
35635;DHT22;21757;43.610;1.440;2023-04-03T18:11:22;12.40;99.90
35635;DHT22;21757;43.610;1.440;2023-04-03T18:13:52;12.40;99.90
35635;DHT22;21757;43.610;1.440;2023-04-03T18:16:17;12.30;99.90
35635;DHT22;21757;43.610;1.440;2023-04-03T18:18:43;12.20;99.90
35635;DHT22;21757;43.610;1.440;2023-04-03T18:21:11;12.20;99.90
35635;DHT22;21757;43.610;1.440;2023-04-03T18:23:40;12.10;99.90